createdAt,value
2022-12-13T00:06:16.849Z,-2.57
2022-12-13T00:16:24.541Z,-2.58
2022-12-13T00:26:32.607Z,-2.63
2022-12-13T00:36:38.091Z,-2.69
2022-12-13T00:46:44.021Z,-2.70
2022-12-13T00:56:51.281Z,-2.77
2022-12-13T01:06:56.965Z,-2.85
2022-12-13T01:17:02.831Z,-2.90
2022-12-13T01:27:08.423Z,-2.98
2022-12-13T01:37:13.885Z,-3.00
2022-12-13T01:47:23.709Z,-3.11
2022-12-13T01:57:29.217Z,-3.14
2022-12-13T02:07:38.029Z,-3.24
2022-12-13T02:18:04.163Z,-3.33
2022-12-13T02:28:31.445Z,-3.38
2022-12-13T02:38:46.898Z,-3.44
2022-12-13T02:48:55.872Z,-3.52
2022-12-13T02:59:04.457Z,-3.55
2022-12-13T03:09:24.655Z,-3.57
2022-12-13T03:19:30.333Z,-3.59
2022-12-13T03:29:35.913Z,-3.59
2022-12-13T03:39:41.478Z,-3.62
2022-12-13T03:49:46.990Z,-3.62
2022-12-13T03:59:59.965Z,-3.61
2022-12-13T04:10:26.042Z,-3.64
2022-12-13T04:20:32.128Z,-3.72
2022-12-13T04:30:38.655Z,-3.76
2022-12-13T04:40:44.202Z,-3.76
2022-12-13T04:50:49.710Z,-3.74
2022-12-13T05:00:55.355Z,-3.80
2022-12-13T05:11:01.665Z,-3.99
2022-12-13T05:21:09.998Z,-4.11
2022-12-13T05:31:22.714Z,-4.26
2022-12-13T05:41:33.337Z,-4.38
2022-12-13T05:51:38.835Z,-4.48
2022-12-13T06:01:44.352Z,-4.51
2022-12-13T06:11:50.026Z,-4.59
2022-12-13T06:21:56.654Z,-4.66
2022-12-13T06:32:03.931Z,-4.66
2022-12-13T06:42:21.869Z,-4.68
2022-12-13T06:52:28.244Z,-4.70
2022-12-13T07:02:34.009Z,-4.71
2022-12-13T07:12:39.994Z,-4.73
2022-12-13T07:22:48.002Z,-4.61
2022-12-13T07:32:54.853Z,-4.63
2022-12-13T07:43:00.462Z,-4.53
2022-12-13T07:53:08.984Z,-4.44
2022-12-13T08:03:25.545Z,-4.34
2022-12-13T08:13:31.595Z,-4.25
2022-12-13T08:23:37.999Z,-4.20
2022-12-13T08:33:45.641Z,-4.04
2022-12-13T08:43:51.778Z,-3.87
2022-12-13T08:54:10.027Z,-3.94
2022-12-13T09:04:16.948Z,-3.88
2022-12-13T09:14:37.492Z,-3.83
2022-12-13T09:24:50.973Z,-3.72
2022-12-13T09:34:56.751Z,-3.68
2022-12-13T09:45:05.068Z,-3.63
2022-12-13T09:55:21.992Z,-3.51
2022-12-13T10:05:35.691Z,-3.45
2022-12-13T10:15:47.768Z,-3.46
2022-12-13T10:26:02.793Z,-3.35
2022-12-13T10:36:15.545Z,-3.38
2022-12-13T10:46:25.924Z,-3.23
2022-12-13T10:56:38.385Z,-3.26
2022-12-13T11:06:46.457Z,-3.41
2022-12-13T11:16:56.979Z,-3.59
2022-12-13T11:27:09.487Z,-3.63
2022-12-13T11:37:24.922Z,-3.55
2022-12-13T11:47:51.658Z,-3.31
2022-12-13T11:58:11.152Z,-3.10
2022-12-13T12:08:32.471Z,-3.04
2022-12-13T12:18:38.649Z,-3.02
2022-12-13T12:29:02.918Z,-2.86
2022-12-13T12:39:30.022Z,-2.83
2022-12-13T12:50:04.135Z,-3.28
2022-12-13T13:00:15.523Z,-3.45
2022-12-13T13:10:26.858Z,-3.54
2022-12-13T13:20:32.823Z,-3.60
2022-12-13T13:31:16.111Z,-3.77
2022-12-13T13:42:02.042Z,-3.97
2022-12-13T13:52:27.409Z,-4.04
2022-12-13T14:03:33.489Z,-4.14
2022-12-13T14:14:22.890Z,-4.22
2022-12-13T14:24:39.709Z,-4.28
2022-12-13T14:34:47.253Z,-4.37
2022-12-13T14:45:22.932Z,-4.59
2022-12-13T14:55:32.075Z,-4.93
2022-12-13T15:05:48.696Z,-5.11
2022-12-13T15:16:00.145Z,-5.06
2022-12-13T15:26:09.181Z,-5.01
2022-12-13T15:36:18.677Z,-5.04
2022-12-13T15:46:29.615Z,-5.10
2022-12-13T15:56:37.139Z,-5.17
2022-12-13T16:06:52.600Z,-5.12
2022-12-13T16:16:59.248Z,-5.12
2022-12-13T16:27:08.411Z,-5.21
2022-12-13T16:37:25.555Z,-5.36
2022-12-13T16:47:41.907Z,-5.45
2022-12-13T16:57:59.861Z,-5.51
2022-12-13T17:08:05.446Z,-5.60
2022-12-13T17:18:10.145Z,-5.71
2022-12-13T17:28:15.632Z,-5.68
2022-12-13T17:38:46.485Z,-5.54
2022-12-13T17:48:51.939Z,-5.42
2022-12-13T17:58:57.429Z,-5.35
2022-12-13T18:09:03.293Z,-5.38
2022-12-13T18:19:11.855Z,-5.38
2022-12-13T18:29:17.762Z,-5.43
2022-12-13T18:39:23.540Z,-5.44
2022-12-13T18:49:29.519Z,-5.42
2022-12-13T18:59:35.033Z,-5.25
2022-12-13T19:09:40.630Z,-5.12
2022-12-13T19:19:48.443Z,-5.01
2022-12-13T19:29:54.338Z,-4.97
2022-12-13T19:40:00.489Z,-4.97
2022-12-13T19:50:07.119Z,-5.05
2022-12-13T20:00:14.739Z,-4.98
2022-12-13T20:10:20.631Z,-4.92
2022-12-13T20:20:40.846Z,-4.86
2022-12-13T20:30:51.783Z,-4.83
2022-12-13T20:40:59.497Z,-4.83
2022-12-13T20:51:07.216Z,-4.81
2022-12-13T21:01:16.951Z,-4.79
2022-12-13T21:11:26.902Z,-4.73
2022-12-13T21:21:32.624Z,-4.69
2022-12-13T21:31:39.519Z,-4.65
2022-12-13T21:41:46.508Z,-4.63
2022-12-13T21:51:52.057Z,-4.70
2022-12-13T22:02:22.894Z,-4.73
2022-12-13T22:12:34.815Z,-4.79
2022-12-13T22:22:42.446Z,-4.87
2022-12-13T22:32:48.135Z,-4.98
2022-12-13T22:42:53.693Z,-5.00
2022-12-13T22:52:59.197Z,-5.08
2022-12-13T23:03:04.756Z,-5.08
2022-12-13T23:13:30.670Z,-5.12
2022-12-13T23:23:59.190Z,-5.14
2022-12-13T23:34:04.906Z,-5.20
2022-12-13T23:44:11.268Z,-5.26
2022-12-13T23:54:19.421Z,-5.33
